createdAt,value
2023-04-19T00:14:18.403Z,1.42
2023-04-19T00:17:09.286Z,1.88
2023-04-19T00:54:46.386Z,1.67
2023-04-19T01:03:29.900Z,2.00
2023-04-19T01:05:57.844Z,1.80
2023-04-19T01:08:27.328Z,2.60
2023-04-19T01:10:57.827Z,2.13
2023-04-19T01:13:27.467Z,2.20
2023-04-19T01:15:55.763Z,2.20
2023-04-19T02:02:39.324Z,1.70
2023-04-19T02:05:08.241Z,1.80
2023-04-19T02:48:10.356Z,1.75
2023-04-19T02:50:38.929Z,1.52
2023-04-19T02:53:06.330Z,1.77
2023-04-19T02:55:33.681Z,2.10
2023-04-19T02:58:03.818Z,2.15
2023-04-19T03:00:34.240Z,2.03
2023-04-19T03:03:04.325Z,1.60
2023-04-19T03:05:32.137Z,2.10
2023-04-19T03:08:35.773Z,2.30
2023-04-19T03:11:12.014Z,2.25
2023-04-19T04:44:12.482Z,4.30
2023-04-19T04:47:31.859Z,3.70
2023-04-19T04:50:02.525Z,5.38
2023-04-19T04:52:49.452Z,5.15
2023-04-19T04:55:16.725Z,4.10
2023-04-19T04:57:46.792Z,3.83
2023-04-19T05:00:17.974Z,3.95
2023-04-19T05:02:48.911Z,3.35
2023-04-19T05:05:16.094Z,3.47
2023-04-19T05:07:43.217Z,4.00
2023-04-19T05:10:10.442Z,3.67
2023-04-19T05:12:39.481Z,3.28
2023-04-19T05:20:57.082Z,3.80
2023-04-19T05:26:15.732Z,3.50
2023-04-19T05:28:43.836Z,3.42
2023-04-19T05:31:14.423Z,3.72
2023-04-19T05:33:42.366Z,3.67
2023-04-19T05:39:08.686Z,4.43
2023-04-19T05:41:39.045Z,3.00
2023-04-19T06:14:09.424Z,4.45
2023-04-19T06:16:36.777Z,3.53
2023-04-19T06:19:54.309Z,4.45
2023-04-19T06:22:32.640Z,3.75
2023-04-19T06:25:05.869Z,3.58
2023-04-19T06:27:59.712Z,2.88
2023-04-19T06:31:29.117Z,3.03
2023-04-19T06:39:22.470Z,2.80
2023-04-19T06:56:04.596Z,4.63
2023-04-19T06:58:41.296Z,3.00
2023-04-19T07:01:09.394Z,3.17
2023-04-19T07:06:40.312Z,4.20
2023-04-19T07:09:08.819Z,3.33
2023-04-19T07:11:38.719Z,3.35
2023-04-19T07:14:10.501Z,2.95
2023-04-19T07:24:23.360Z,3.10
2023-04-19T07:27:14.871Z,2.95
2023-04-19T07:32:32.896Z,3.20
2023-04-19T07:34:59.894Z,3.15
2023-04-19T07:37:26.794Z,3.67
2023-04-19T07:39:53.680Z,2.75
2023-04-19T07:42:20.457Z,3.45
2023-04-19T07:44:49.489Z,2.90
2023-04-19T07:47:16.278Z,2.78
2023-04-19T07:49:44.691Z,3.05
2023-04-19T07:52:11.623Z,3.65
2023-04-19T07:54:39.750Z,3.28
2023-04-19T07:57:09.319Z,3.22
2023-04-19T07:59:36.145Z,2.97
2023-04-19T08:02:03.149Z,3.63
2023-04-19T08:04:30.318Z,2.88
2023-04-19T08:06:57.335Z,3.38
2023-04-19T08:09:26.641Z,4.38
2023-04-19T08:11:53.716Z,3.60
2023-04-19T08:14:34.537Z,2.97
2023-04-19T08:17:24.049Z,3.00
2023-04-19T08:19:52.529Z,2.58
2023-04-19T08:22:20.668Z,2.70
2023-04-19T08:24:52.189Z,3.55
2023-04-19T08:27:19.514Z,3.00
2023-04-19T08:29:47.452Z,3.00
2023-04-19T08:32:14.341Z,2.97
2023-04-19T08:34:41.253Z,2.80
2023-04-19T08:37:08.112Z,2.40
2023-04-19T08:39:35.476Z,2.70
2023-04-19T08:42:13.308Z,2.55
2023-04-19T08:45:25.467Z,2.63
2023-04-19T08:47:58.957Z,2.58
2023-04-19T08:50:34.404Z,2.55
2023-04-19T08:53:20.931Z,2.55
2023-04-19T08:56:06.892Z,2.35
2023-04-19T08:58:54.962Z,2.22
2023-04-19T09:04:07.363Z,2.30
2023-04-19T09:06:44.632Z,3.10
2023-04-19T09:11:56.712Z,2.33
2023-04-19T09:14:40.085Z,2.67
2023-04-19T09:17:18.301Z,1.90
2023-04-19T09:19:50.407Z,2.10
2023-04-19T09:22:27.412Z,1.92
2023-04-19T09:27:37.514Z,1.92
2023-04-19T09:30:07.289Z,1.65
2023-04-19T09:32:52.306Z,1.20
2023-04-19T09:38:06.967Z,1.60
2023-04-19T09:40:34.790Z,1.85
2023-04-19T09:43:23.139Z,1.35
2023-04-19T09:45:50.443Z,1.85
2023-04-19T09:48:20.771Z,1.60
2023-04-19T09:51:00.671Z,1.60
2023-04-19T09:53:35.155Z,1.30
2023-04-19T09:56:04.661Z,1.75
2023-04-19T09:58:46.341Z,1.38
2023-04-19T10:01:19.358Z,1.48
2023-04-19T10:03:50.372Z,1.50
2023-04-19T10:08:51.472Z,1.20
2023-04-19T10:11:22.302Z,0.82
2023-04-19T10:13:51.928Z,1.40
2023-04-19T10:16:20.398Z,1.27
2023-04-19T10:18:54.554Z,1.10
2023-04-19T10:21:22.365Z,0.80
2023-04-19T10:23:55.882Z,1.05
2023-04-19T10:26:32.164Z,0.77
2023-04-19T10:29:02.165Z,0.90
2023-04-19T10:31:52.589Z,1.80
2023-04-19T10:34:44.597Z,1.33
2023-04-19T10:37:12.224Z,1.33
2023-04-19T10:39:45.518Z,1.20
2023-04-19T10:42:14.722Z,1.52
2023-04-19T10:44:42.120Z,1.73
2023-04-19T10:47:14.663Z,1.42
2023-04-19T10:49:47.907Z,1.00
2023-04-19T10:52:29.914Z,0.85
2023-04-19T10:54:57.232Z,0.90
2023-04-19T10:57:25.587Z,1.00
2023-04-19T11:00:22.790Z,0.95
2023-04-19T11:03:03.198Z,1.35
2023-04-19T11:05:30.939Z,1.10
2023-04-19T11:07:58.135Z,1.08
2023-04-19T11:10:31.211Z,0.95
2023-04-19T11:12:58.731Z,0.98
2023-04-19T11:15:26.370Z,1.17
2023-04-19T11:18:08.775Z,1.20
2023-04-19T11:20:39.122Z,1.92
2023-04-19T11:26:14.869Z,1.20
2023-04-19T11:28:41.773Z,1.08
2023-04-19T11:31:08.724Z,1.02
2023-04-19T11:33:42.064Z,0.90
2023-04-19T11:36:15.110Z,0.45
2023-04-19T11:38:45.068Z,0.63
2023-04-19T11:41:14.956Z,0.50
2023-04-19T11:43:45.580Z,0.68
2023-04-19T11:46:13.930Z,0.60
2023-04-19T11:48:56.931Z,0.65
2023-04-19T11:51:23.947Z,0.40
2023-04-19T11:53:53.570Z,0.60
2023-04-19T11:56:20.500Z,0.40
2023-04-19T11:58:51.431Z,0.68
2023-04-19T12:01:22.435Z,0.30
2023-04-19T12:03:54.531Z,0.50
2023-04-19T12:06:27.493Z,0.60
2023-04-19T12:08:55.706Z,0.60
2023-04-19T12:11:41.802Z,0.55
2023-04-19T12:14:13.992Z,0.55
2023-04-19T12:16:41.833Z,0.60
2023-04-19T12:19:19.129Z,0.70
2023-04-19T12:21:47.204Z,0.35
2023-04-19T12:24:25.139Z,0.95
2023-04-19T12:27:06.218Z,0.40
2023-04-19T12:32:47.116Z,0.50
2023-04-19T12:35:14.042Z,0.60
2023-04-19T12:37:50.277Z,0.70
2023-04-19T12:40:18.768Z,0.50
2023-04-19T12:42:49.170Z,0.80
2023-04-19T12:45:19.470Z,0.60
2023-04-19T12:47:51.051Z,0.80
2023-04-19T12:50:18.380Z,0.80
2023-04-19T12:52:45.821Z,0.73
2023-04-19T12:55:12.905Z,1.00
2023-04-19T12:57:40.141Z,0.90
2023-04-19T13:00:07.762Z,1.13
2023-04-19T13:02:44.122Z,0.85
2023-04-19T13:15:59.563Z,0.60
2023-04-19T13:18:45.458Z,0.88
2023-04-19T13:21:12.840Z,0.85
2023-04-19T13:23:39.722Z,0.40
2023-04-19T13:26:18.319Z,0.60
2023-04-19T13:28:45.317Z,0.80
2023-04-19T13:31:12.358Z,0.60
2023-04-19T13:33:39.281Z,0.90
2023-04-19T13:36:06.661Z,0.57
2023-04-19T13:38:33.505Z,0.50
2023-04-19T13:41:01.112Z,0.40
2023-04-19T13:43:27.954Z,0.50
2023-04-19T13:45:54.626Z,0.45
2023-04-19T13:48:21.815Z,0.40
2023-04-19T13:50:50.957Z,0.55
2023-04-19T13:53:18.232Z,0.60
2023-04-19T13:55:45.190Z,0.45
2023-04-19T13:58:12.398Z,0.57
2023-04-19T14:00:39.695Z,0.60
2023-04-19T14:03:06.746Z,0.60
2023-04-19T14:05:33.721Z,0.68
2023-04-19T14:08:02.981Z,0.90
2023-04-19T14:10:30.003Z,0.90
2023-04-19T14:12:56.770Z,0.70
2023-04-19T14:15:24.278Z,0.98
2023-04-19T14:17:51.629Z,0.95
2023-04-19T14:20:18.969Z,0.80
2023-04-19T14:22:46.778Z,1.20
2023-04-19T14:25:23.649Z,1.02
2023-04-19T14:27:50.547Z,0.90
2023-04-19T14:30:17.576Z,1.23
2023-04-19T14:32:44.706Z,1.52
2023-04-19T14:35:12.172Z,1.23
2023-04-19T14:37:39.264Z,1.25
2023-04-19T14:40:09.553Z,1.38
2023-04-19T14:42:36.371Z,1.15
2023-04-19T14:45:03.475Z,1.70
2023-04-19T14:47:30.891Z,4.25
2023-04-19T14:49:57.747Z,2.22
2023-04-19T14:52:25.861Z,1.52
2023-04-19T14:54:52.991Z,2.00
2023-04-19T14:57:20.353Z,2.80
2023-04-19T14:59:49.741Z,3.70
2023-04-19T15:02:17.097Z,5.10
2023-04-19T15:04:44.003Z,5.72
2023-04-19T15:07:10.799Z,5.47
2023-04-19T15:09:37.921Z,5.30
2023-04-19T15:12:04.826Z,6.05
2023-04-19T15:14:31.618Z,6.57
2023-04-19T15:16:58.614Z,6.30
2023-04-19T15:19:28.015Z,5.85
2023-04-19T15:21:57.720Z,5.88
2023-04-19T15:24:27.053Z,6.50
2023-04-19T15:26:53.804Z,6.72
2023-04-19T15:29:20.602Z,6.57
2023-04-19T15:31:47.581Z,6.47
2023-04-19T15:34:14.329Z,7.18
2023-04-19T15:36:41.136Z,7.18
2023-04-19T15:39:08.068Z,6.95
2023-04-19T15:41:35.686Z,7.63
2023-04-19T15:44:02.366Z,7.35
2023-04-19T15:46:29.354Z,7.15
2023-04-19T15:48:57.394Z,7.03
2023-04-19T15:51:38.454Z,7.57
2023-04-19T15:54:07.322Z,8.07
2023-04-19T15:56:37.308Z,8.15
2023-04-19T15:59:04.072Z,7.82
2023-04-19T16:01:30.999Z,7.63
2023-04-19T16:06:39.614Z,8.13
2023-04-19T16:09:09.783Z,7.50
2023-04-19T16:11:52.456Z,8.55
2023-04-19T16:14:19.594Z,8.35
2023-04-19T16:16:46.310Z,7.32
2023-04-19T16:19:15.991Z,8.10
2023-04-19T16:21:46.316Z,7.97
2023-04-19T16:24:20.508Z,8.50
2023-04-19T16:26:48.665Z,8.43
2023-04-19T16:29:15.798Z,8.00
2023-04-19T16:31:42.758Z,8.00
2023-04-19T16:34:09.626Z,7.95
2023-04-19T16:36:36.643Z,8.40
2023-04-19T16:39:04.187Z,7.97
2023-04-19T16:41:31.214Z,7.97
2023-04-19T16:43:57.936Z,8.38
2023-04-19T16:46:27.658Z,9.23
2023-04-19T16:49:02.091Z,9.90
2023-04-19T16:51:31.365Z,10.30
2023-04-19T16:53:58.214Z,9.98
2023-04-19T16:56:29.258Z,10.32
2023-04-19T16:58:57.554Z,9.02
2023-04-19T17:01:24.333Z,9.80
2023-04-19T17:03:51.491Z,10.43
2023-04-19T17:06:18.579Z,10.63
2023-04-19T17:08:45.542Z,10.77
2023-04-19T17:11:12.405Z,9.13
2023-04-19T17:13:39.981Z,9.23
2023-04-19T17:16:07.427Z,8.38
2023-04-19T17:18:34.433Z,9.32
2023-04-19T17:21:01.417Z,11.55
2023-04-19T17:23:28.212Z,12.68
2023-04-19T17:25:58.423Z,11.45
2023-04-19T17:28:25.346Z,12.13
2023-04-19T17:30:52.318Z,11.38
2023-04-19T17:33:21.520Z,10.05
2023-04-19T17:35:48.258Z,8.98
2023-04-19T17:38:15.016Z,8.57
2023-04-19T17:40:42.094Z,9.63
2023-04-19T17:43:11.133Z,10.07
2023-04-19T17:45:38.100Z,7.68
2023-04-19T17:48:05.396Z,9.23
2023-04-19T17:50:38.611Z,8.60
2023-04-19T17:53:05.617Z,7.90
2023-04-19T17:55:33.216Z,7.93
2023-04-19T17:58:00.351Z,9.65
2023-04-19T18:00:27.432Z,12.73
2023-04-19T18:02:56.425Z,14.88
2023-04-19T18:05:30.722Z,12.30
2023-04-19T18:08:09.286Z,11.07
2023-04-19T18:10:38.122Z,10.55
2023-04-19T18:13:05.128Z,8.45
2023-04-19T18:15:31.919Z,8.38
2023-04-19T18:17:58.773Z,7.93
2023-04-19T18:20:25.830Z,7.35
2023-04-19T18:22:53.783Z,7.53
2023-04-19T18:25:23.306Z,8.23
2023-04-19T18:27:51.244Z,8.35
2023-04-19T18:30:18.341Z,7.13
2023-04-19T18:32:48.563Z,7.40
2023-04-19T18:35:15.514Z,8.20
2023-04-19T18:37:44.973Z,8.80
2023-04-19T18:40:12.643Z,7.28
2023-04-19T18:42:42.514Z,6.93
2023-04-19T18:45:15.061Z,7.68
2023-04-19T18:47:42.315Z,8.63
2023-04-19T18:50:15.992Z,7.55
2023-04-19T18:52:46.044Z,8.43
2023-04-19T18:55:13.966Z,8.18
2023-04-19T18:57:43.378Z,8.80
2023-04-19T19:00:11.705Z,8.00
2023-04-19T19:02:45.010Z,9.10
2023-04-19T19:05:14.122Z,8.13
2023-04-19T19:07:42.252Z,8.68
2023-04-19T19:10:19.122Z,7.38
2023-04-19T19:12:49.319Z,8.55
2023-04-19T19:15:16.990Z,7.82
2023-04-19T19:17:49.389Z,7.90
2023-04-19T19:20:17.065Z,8.15
2023-04-19T19:22:44.337Z,7.65
2023-04-19T19:25:12.146Z,7.43
2023-04-19T19:27:39.045Z,8.45
2023-04-19T19:30:07.988Z,7.30
2023-04-19T19:32:35.082Z,6.60
2023-04-19T19:35:07.374Z,7.07
2023-04-19T19:37:38.278Z,7.20
2023-04-19T19:40:11.095Z,6.47
2023-04-19T19:42:41.358Z,6.43
2023-04-19T19:45:09.538Z,7.05
2023-04-19T19:47:44.409Z,6.65
2023-04-19T19:51:01.083Z,6.95
2023-04-19T19:53:02.357Z,7.10
2023-04-19T19:55:31.102Z,6.45
2023-04-19T20:00:47.957Z,6.95
2023-04-19T20:03:28.808Z,6.50
2023-04-19T20:06:35.670Z,7.40
2023-04-19T20:08:57.141Z,6.90
2023-04-19T20:11:25.481Z,6.30
2023-04-19T20:13:52.805Z,7.00
2023-04-19T20:16:23.984Z,6.22
2023-04-19T20:18:55.147Z,6.57
2023-04-19T20:21:22.066Z,6.97
2023-04-19T20:26:43.388Z,5.68
2023-04-19T20:29:13.198Z,6.95
2023-04-19T20:31:46.582Z,6.57
2023-04-19T20:34:19.733Z,6.55
2023-04-19T20:36:54.580Z,6.50
2023-04-19T20:39:21.730Z,7.57
2023-04-19T20:41:54.495Z,7.38
2023-04-19T20:49:51.430Z,6.00
2023-04-19T20:52:18.646Z,5.70
2023-04-19T20:54:46.553Z,5.55
2023-04-19T20:57:16.264Z,5.32
2023-04-19T20:59:44.988Z,5.30
2023-04-19T21:02:12.213Z,6.05
2023-04-19T21:04:42.155Z,5.90
2023-04-19T21:07:36.099Z,6.75
2023-04-19T21:10:17.691Z,6.10
2023-04-19T21:12:46.356Z,5.82
2023-04-19T21:15:13.890Z,6.15
2023-04-19T21:17:41.461Z,5.82
2023-04-19T21:20:12.543Z,5.40
2023-04-19T21:22:45.486Z,5.63
2023-04-19T21:28:03.972Z,5.68
2023-04-19T21:35:59.503Z,6.22
2023-04-19T21:38:27.553Z,5.78
2023-04-19T21:40:54.504Z,5.68
2023-04-19T21:43:22.712Z,6.50
2023-04-19T21:45:49.538Z,5.15
2023-04-19T21:48:16.559Z,6.00
2023-04-19T21:50:43.256Z,5.90
2023-04-19T21:53:12.725Z,5.97
2023-04-19T21:55:39.468Z,6.40
2023-04-19T21:58:07.668Z,6.10
2023-04-19T22:00:50.000Z,6.28
2023-04-19T22:03:17.388Z,5.18
2023-04-19T22:05:48.857Z,5.75
2023-04-19T22:08:18.306Z,6.25
2023-04-19T22:13:31.779Z,6.38
2023-04-19T22:16:01.699Z,6.22
2023-04-19T22:18:38.240Z,6.22
2023-04-19T22:21:08.840Z,6.45
2023-04-19T22:23:36.553Z,6.53
2023-04-19T22:26:04.375Z,6.25
2023-04-19T22:28:31.475Z,6.30
2023-04-19T22:30:58.463Z,6.10
2023-04-19T22:33:28.175Z,5.95
2023-04-19T22:35:54.960Z,6.10
2023-04-19T22:38:22.140Z,7.00
2023-04-19T22:40:48.985Z,6.68
2023-04-19T22:43:16.525Z,6.97
2023-04-19T22:45:48.167Z,6.50
2023-04-19T22:48:15.543Z,6.70
2023-04-19T22:50:43.690Z,6.13
2023-04-19T22:53:13.323Z,5.90
2023-04-19T22:55:44.436Z,6.43
2023-04-19T22:58:17.058Z,6.13
2023-04-19T23:00:44.086Z,6.43
2023-04-19T23:03:11.199Z,6.70
2023-04-19T23:05:38.343Z,6.75
2023-04-19T23:08:05.420Z,5.90
2023-04-19T23:10:32.409Z,6.35
2023-04-19T23:12:59.676Z,6.47
2023-04-19T23:15:28.739Z,7.10
2023-04-19T23:17:56.232Z,7.20
2023-04-19T23:20:23.684Z,5.72
2023-04-19T23:22:50.666Z,5.93
2023-04-19T23:25:17.789Z,5.93
2023-04-19T23:27:44.969Z,5.95
2023-04-19T23:30:12.197Z,6.68
2023-04-19T23:32:39.248Z,6.45
2023-04-19T23:35:06.803Z,6.07
2023-04-19T23:37:33.662Z,6.00
2023-04-19T23:40:08.405Z,6.28
2023-04-19T23:42:36.996Z,6.68
2023-04-19T23:45:04.786Z,6.15
2023-04-19T23:47:31.824Z,6.50
2023-04-19T23:49:58.651Z,6.15
2023-04-19T23:52:27.812Z,6.00
2023-04-19T23:54:54.577Z,7.35
2023-04-19T23:57:21.576Z,6.32
2023-04-19T23:59:48.930Z,6.53
